createdAt,value
2019-01-30T00:00:35.330Z,3.70
2019-01-30T00:03:08.831Z,3.60
2019-01-30T00:05:42.438Z,3.90
2019-01-30T00:08:16.127Z,3.47
2019-01-30T00:10:49.643Z,3.57
2019-01-30T00:13:23.075Z,3.47
2019-01-30T00:15:56.863Z,3.57
2019-01-30T00:18:30.311Z,3.70
2019-01-30T00:21:04.012Z,3.50
2019-01-30T00:23:37.446Z,3.40
2019-01-30T00:26:11.106Z,3.70
2019-01-30T00:28:44.565Z,3.87
2019-01-30T00:31:18.071Z,3.70
2019-01-30T00:33:51.487Z,3.87
2019-01-30T00:36:24.997Z,3.50
2019-01-30T00:38:58.498Z,3.67
2019-01-30T00:41:31.980Z,3.93
2019-01-30T00:44:05.515Z,3.40
2019-01-30T00:46:38.930Z,3.13
2019-01-30T00:49:12.355Z,3.53
2019-01-30T00:51:45.793Z,3.37
2019-01-30T00:54:19.279Z,3.37
2019-01-30T00:56:52.699Z,3.20
2019-01-30T00:59:26.130Z,3.37
2019-01-30T01:01:59.549Z,3.20
2019-01-30T01:04:32.983Z,3.67
2019-01-30T01:07:06.491Z,3.67
2019-01-30T01:09:39.927Z,2.93
2019-01-30T01:12:13.351Z,3.17
2019-01-30T01:14:46.859Z,3.50
2019-01-30T01:17:20.287Z,3.20
2019-01-30T01:19:53.742Z,3.33
2019-01-30T01:22:27.228Z,3.50
2019-01-30T01:25:00.673Z,2.90
2019-01-30T01:27:34.107Z,2.93
2019-01-30T01:30:10.628Z,3.10
2019-01-30T01:32:44.052Z,3.47
2019-01-30T01:35:17.984Z,3.27
2019-01-30T01:37:51.490Z,3.50
2019-01-30T01:40:24.918Z,2.90
2019-01-30T01:42:58.345Z,2.93
2019-01-30T01:45:31.775Z,3.10
2019-01-30T01:48:05.432Z,3.50
2019-01-30T01:50:38.869Z,2.97
2019-01-30T01:53:12.289Z,3.10
2019-01-30T01:55:45.718Z,3.03
2019-01-30T01:58:19.143Z,3.27
2019-01-30T02:00:52.711Z,3.03
2019-01-30T02:03:26.204Z,3.43
2019-01-30T02:05:59.664Z,3.13
2019-01-30T02:08:33.075Z,3.33
2019-01-30T02:11:06.579Z,3.20
2019-01-30T02:13:39.988Z,3.30
2019-01-30T02:16:13.424Z,3.37
2019-01-30T02:18:46.840Z,3.60
2019-01-30T02:21:20.277Z,3.00
2019-01-30T02:23:53.683Z,3.23
2019-01-30T02:26:27.127Z,3.50
2019-01-30T02:29:00.617Z,3.20
2019-01-30T02:31:34.060Z,3.27
2019-01-30T02:34:07.507Z,3.13
2019-01-30T02:36:56.030Z,3.00
2019-01-30T02:39:29.473Z,3.40
2019-01-30T02:42:02.988Z,3.43
2019-01-30T02:44:36.414Z,3.20
2019-01-30T02:47:09.854Z,3.40
2019-01-30T02:49:43.283Z,2.97
2019-01-30T02:52:16.705Z,3.03
2019-01-30T02:54:50.138Z,3.37
2019-01-30T02:57:23.575Z,3.40
2019-01-30T02:59:57.015Z,3.23
2019-01-30T03:02:30.499Z,3.57
2019-01-30T03:05:05.724Z,3.60
2019-01-30T03:07:39.272Z,3.47
2019-01-30T03:10:18.222Z,2.93
2019-01-30T03:12:51.774Z,3.27
2019-01-30T03:15:25.276Z,3.20
2019-01-30T03:17:58.796Z,2.80
2019-01-30T03:20:32.207Z,3.03
2019-01-30T03:23:05.703Z,3.13
2019-01-30T03:25:39.207Z,3.10
2019-01-30T03:28:12.629Z,3.07
2019-01-30T03:30:46.070Z,3.53
2019-01-30T03:33:19.479Z,3.27
2019-01-30T03:35:52.909Z,3.43
2019-01-30T03:38:26.319Z,4.20
2019-01-30T03:40:59.746Z,3.10
2019-01-30T03:43:33.184Z,3.40
2019-01-30T03:46:06.783Z,3.13
2019-01-30T03:48:40.185Z,3.83
2019-01-30T03:51:13.608Z,3.70
2019-01-30T03:53:47.048Z,3.70
2019-01-30T03:56:20.779Z,3.60
2019-01-30T03:58:54.199Z,3.67
2019-01-30T04:01:27.696Z,3.50
2019-01-30T04:04:01.122Z,3.70
2019-01-30T04:06:34.559Z,3.47
2019-01-30T04:09:08.214Z,3.40
2019-01-30T04:11:41.671Z,3.73
2019-01-30T04:14:15.092Z,3.50
2019-01-30T04:16:48.540Z,3.80
2019-01-30T04:19:23.501Z,3.63
2019-01-30T04:21:56.936Z,3.80
2019-01-30T04:24:30.351Z,3.70
2019-01-30T04:27:03.875Z,3.53
2019-01-30T04:29:37.319Z,3.53
2019-01-30T04:32:10.760Z,3.80
2019-01-30T04:34:44.167Z,3.60
2019-01-30T04:37:17.754Z,3.20
2019-01-30T04:39:51.161Z,3.67
2019-01-30T04:42:24.608Z,3.47
2019-01-30T04:44:58.046Z,7.07
2019-01-30T04:47:31.558Z,4.80
2019-01-30T04:50:06.645Z,4.03
2019-01-30T04:52:40.223Z,3.50
2019-01-30T04:55:14.084Z,3.67
2019-01-30T04:57:47.539Z,3.80
2019-01-30T05:00:23.870Z,3.30
2019-01-30T05:02:57.278Z,4.20
2019-01-30T05:05:30.781Z,3.60
2019-01-30T05:08:04.271Z,4.27
2019-01-30T05:10:37.731Z,4.30
2019-01-30T05:13:11.150Z,4.30
2019-01-30T05:15:44.600Z,4.30
2019-01-30T05:18:18.035Z,4.10
2019-01-30T05:20:51.481Z,4.20
2019-01-30T05:23:24.910Z,4.57
2019-01-30T05:26:00.021Z,4.23
2019-01-30T05:28:33.591Z,4.00
2019-01-30T05:31:07.045Z,4.43
2019-01-30T05:33:40.467Z,4.43
2019-01-30T05:36:13.902Z,4.10
2019-01-30T05:38:47.327Z,4.67
2019-01-30T05:41:20.766Z,4.30
2019-01-30T05:43:54.185Z,4.50
2019-01-30T05:46:27.640Z,3.90
2019-01-30T05:49:01.061Z,4.27
2019-01-30T05:51:34.507Z,4.10
2019-01-30T05:54:07.990Z,4.73
2019-01-30T05:56:41.471Z,4.60
2019-01-30T05:59:14.882Z,4.80
2019-01-30T06:01:48.334Z,5.20
2019-01-30T06:04:21.739Z,5.77
2019-01-30T06:06:55.184Z,5.37
2019-01-30T06:09:28.621Z,5.13
2019-01-30T06:12:02.078Z,5.10
2019-01-30T06:14:35.499Z,5.20
2019-01-30T06:17:09.773Z,5.63
2019-01-30T06:19:43.259Z,5.77
2019-01-30T06:22:16.696Z,6.17
2019-01-30T06:24:50.108Z,6.77
2019-01-30T06:27:23.627Z,7.33
2019-01-30T06:29:57.041Z,7.40
2019-01-30T06:32:30.470Z,7.23
2019-01-30T06:35:04.427Z,7.10
2019-01-30T06:37:37.943Z,7.07
2019-01-30T06:40:17.282Z,8.00
2019-01-30T06:42:50.880Z,7.90
2019-01-30T06:45:24.747Z,8.37
2019-01-30T06:47:58.443Z,8.83
2019-01-30T06:50:31.862Z,9.00
2019-01-30T06:53:05.364Z,8.70
2019-01-30T06:55:38.791Z,8.60
2019-01-30T06:58:12.234Z,8.40
2019-01-30T07:00:45.664Z,9.63
2019-01-30T07:03:19.107Z,8.60
2019-01-30T07:05:52.635Z,8.30
2019-01-30T07:08:26.162Z,8.57
2019-01-30T07:11:10.137Z,8.70
2019-01-30T07:13:34.777Z,8.20
2019-01-30T07:16:08.202Z,8.17
2019-01-30T07:18:41.656Z,8.00
2019-01-30T07:21:15.074Z,7.33
2019-01-30T07:23:48.531Z,7.23
2019-01-30T07:26:21.958Z,7.60
2019-01-30T07:28:55.380Z,6.70
2019-01-30T07:31:28.816Z,7.47
2019-01-30T07:34:02.319Z,6.80
2019-01-30T07:36:35.738Z,10.40
2019-01-30T07:39:09.642Z,9.50
2019-01-30T07:41:43.179Z,6.70
2019-01-30T07:44:16.671Z,5.70
2019-01-30T07:46:50.151Z,5.43
2019-01-30T07:49:23.634Z,5.20
2019-01-30T07:51:57.232Z,6.10
2019-01-30T07:54:30.652Z,5.17
2019-01-30T07:57:04.151Z,5.47
2019-01-30T07:59:37.566Z,4.70
2019-01-30T08:02:11.014Z,4.77
2019-01-30T08:04:44.442Z,5.00
2019-01-30T08:07:17.876Z,4.77
2019-01-30T08:09:51.306Z,4.90
2019-01-30T08:12:24.736Z,4.80
2019-01-30T08:14:58.147Z,4.67
2019-01-30T08:17:31.587Z,4.80
2019-01-30T08:20:08.090Z,4.60
2019-01-30T08:22:41.762Z,4.80
2019-01-30T08:25:18.080Z,4.70
2019-01-30T08:27:52.220Z,4.77
2019-01-30T08:30:28.020Z,4.37
2019-01-30T08:33:05.972Z,4.77
2019-01-30T08:35:37.174Z,5.13
2019-01-30T08:38:10.623Z,4.70
2019-01-30T08:40:44.070Z,4.53
2019-01-30T08:43:17.506Z,4.93
2019-01-30T08:45:50.995Z,5.07
2019-01-30T08:48:24.436Z,5.07
2019-01-30T08:50:57.936Z,5.07
2019-01-30T08:53:31.549Z,5.03
2019-01-30T08:56:05.152Z,5.80
2019-01-30T08:58:38.586Z,6.20
2019-01-30T09:01:12.029Z,7.87
2019-01-30T09:03:45.476Z,7.33
2019-01-30T09:06:19.011Z,7.07
2019-01-30T09:08:52.463Z,8.93
2019-01-30T09:11:25.888Z,7.80
2019-01-30T09:13:59.319Z,9.83
2019-01-30T09:16:32.797Z,5.70
2019-01-30T09:19:06.318Z,7.67
2019-01-30T09:21:39.743Z,6.73
2019-01-30T09:24:13.171Z,5.97
2019-01-30T09:26:46.688Z,5.73
2019-01-30T09:29:20.134Z,6.70
2019-01-30T09:31:53.618Z,6.53
2019-01-30T09:34:27.081Z,5.67
2019-01-30T09:37:00.565Z,4.73
2019-01-30T09:39:34.025Z,4.33
2019-01-30T09:42:07.487Z,4.63
2019-01-30T09:44:41.043Z,4.07
2019-01-30T09:47:14.449Z,3.00
2019-01-30T09:49:47.981Z,3.43
2019-01-30T09:52:26.973Z,2.80
2019-01-30T09:54:56.585Z,2.77
2019-01-30T09:57:31.617Z,2.70
2019-01-30T10:00:22.995Z,2.37
2019-01-30T10:02:56.443Z,2.50
2019-01-30T10:05:29.968Z,2.30
2019-01-30T10:08:03.624Z,2.50
2019-01-30T10:10:39.656Z,2.73
2019-01-30T10:13:13.140Z,2.40
2019-01-30T10:15:46.943Z,2.40
2019-01-30T10:18:20.424Z,2.47
2019-01-30T10:20:53.923Z,2.13
2019-01-30T10:23:27.434Z,2.20
2019-01-30T10:26:00.883Z,2.17
2019-01-30T10:28:34.367Z,1.80
2019-01-30T10:31:07.880Z,1.93
2019-01-30T10:33:46.649Z,2.77
2019-01-30T10:36:16.535Z,2.40
2019-01-30T10:38:49.967Z,2.40
2019-01-30T10:41:23.408Z,2.30
2019-01-30T10:43:57.463Z,2.30
2019-01-30T10:46:30.887Z,2.60
2019-01-30T10:49:04.687Z,2.57
2019-01-30T10:51:38.139Z,2.63
2019-01-30T10:54:11.636Z,2.53
2019-01-30T10:56:45.207Z,2.40
2019-01-30T10:59:18.655Z,2.57
2019-01-30T11:01:52.071Z,2.60
2019-01-30T11:04:25.518Z,2.47
2019-01-30T11:06:58.961Z,2.33
2019-01-30T11:09:32.375Z,2.73
2019-01-30T11:12:05.885Z,2.53
2019-01-30T11:14:41.042Z,2.40
2019-01-30T11:17:14.770Z,2.40
2019-01-30T11:19:49.210Z,2.30
2019-01-30T11:22:22.640Z,2.30
2019-01-30T11:24:56.086Z,2.20
2019-01-30T11:27:29.530Z,1.70
2019-01-30T11:30:03.022Z,2.30
2019-01-30T11:32:36.487Z,2.10
2019-01-30T11:35:10.483Z,1.50
2019-01-30T11:37:44.082Z,1.27
2019-01-30T11:40:20.262Z,1.30
2019-01-30T11:42:53.703Z,1.20
2019-01-30T11:45:35.874Z,1.30
2019-01-30T11:48:09.348Z,1.77
2019-01-30T11:50:42.776Z,1.50
2019-01-30T11:53:16.267Z,1.47
2019-01-30T11:55:49.775Z,1.50
2019-01-30T11:58:23.194Z,1.20
2019-01-30T12:00:58.300Z,0.90
2019-01-30T12:03:31.851Z,0.60
2019-01-30T12:06:05.533Z,0.70
2019-01-30T12:08:39.110Z,0.57
2019-01-30T12:11:12.537Z,0.90
2019-01-30T12:13:45.951Z,0.40
2019-01-30T12:16:19.383Z,0.80
2019-01-30T12:18:52.811Z,0.77
2019-01-30T12:21:26.322Z,0.57
2019-01-30T12:23:59.827Z,0.60
2019-01-30T12:26:33.268Z,0.60
2019-01-30T12:29:06.694Z,0.77
2019-01-30T12:31:40.169Z,0.50
2019-01-30T12:34:13.617Z,0.60
2019-01-30T12:36:47.102Z,0.50
2019-01-30T12:39:20.504Z,0.60
2019-01-30T12:41:54.004Z,0.57
2019-01-30T12:44:27.502Z,0.80
2019-01-30T12:47:01.125Z,0.50
2019-01-30T12:49:34.529Z,0.73
2019-01-30T12:52:07.980Z,0.60
2019-01-30T12:54:41.434Z,0.30
2019-01-30T12:57:14.883Z,0.60
2019-01-30T12:59:48.375Z,0.73
2019-01-30T13:02:21.871Z,0.60
2019-01-30T13:04:55.272Z,0.50
2019-01-30T13:07:28.727Z,0.57
2019-01-30T13:10:02.146Z,0.50
2019-01-30T13:12:35.858Z,0.70
2019-01-30T13:15:17.358Z,0.40
2019-01-30T13:17:50.871Z,0.50
2019-01-30T13:20:24.656Z,0.57
2019-01-30T13:22:58.084Z,0.53
2019-01-30T13:25:32.211Z,0.50
2019-01-30T13:28:06.287Z,0.60
2019-01-30T13:30:43.446Z,0.70
2019-01-30T13:33:15.820Z,0.70
2019-01-30T13:35:49.249Z,0.60
2019-01-30T13:38:22.680Z,0.63
2019-01-30T13:40:57.640Z,0.77
2019-01-30T13:43:31.074Z,0.60
2019-01-30T13:46:05.711Z,0.50
2019-01-30T13:48:39.336Z,0.70
2019-01-30T13:51:12.747Z,0.63
2019-01-30T13:53:46.225Z,0.87
2019-01-30T13:56:19.703Z,0.90
2019-01-30T13:58:53.190Z,0.97
2019-01-30T14:01:26.842Z,0.73
2019-01-30T14:04:00.338Z,0.70
2019-01-30T14:06:33.763Z,0.97
2019-01-30T14:09:08.834Z,1.30
2019-01-30T14:11:42.290Z,1.50
2019-01-30T14:14:15.823Z,0.97
2019-01-30T14:16:49.298Z,1.13
2019-01-30T14:19:22.839Z,1.20
2019-01-30T14:21:56.253Z,1.00
2019-01-30T14:24:29.735Z,0.70
2019-01-30T14:27:03.254Z,0.60
2019-01-30T14:29:36.818Z,1.03
2019-01-30T14:32:10.295Z,1.13
2019-01-30T14:34:43.784Z,0.90
2019-01-30T14:37:17.261Z,0.70
2019-01-30T14:39:51.883Z,0.80
2019-01-30T14:42:25.508Z,0.90
2019-01-30T14:44:58.955Z,0.80
2019-01-30T14:47:32.450Z,0.90
2019-01-30T14:50:09.069Z,0.90
2019-01-30T14:52:44.312Z,1.00
2019-01-30T14:55:18.351Z,1.00
2019-01-30T14:57:53.510Z,0.80
2019-01-30T15:00:31.759Z,0.80
2019-01-30T15:03:05.742Z,1.00
2019-01-30T15:05:39.308Z,1.10
2019-01-30T15:08:12.762Z,1.00
2019-01-30T15:10:46.241Z,1.30
2019-01-30T15:13:19.694Z,1.00
2019-01-30T15:15:53.345Z,1.10
2019-01-30T15:18:26.889Z,0.87
2019-01-30T15:21:00.397Z,1.00
2019-01-30T15:23:33.879Z,0.87
2019-01-30T15:26:07.490Z,0.80
2019-01-30T15:28:41.195Z,1.00
2019-01-30T15:31:14.600Z,1.00
2019-01-30T15:33:48.137Z,0.80
2019-01-30T15:36:21.708Z,0.90
2019-01-30T15:38:55.139Z,1.00
2019-01-30T15:41:28.573Z,1.00
2019-01-30T15:44:02.029Z,1.40
2019-01-30T15:46:35.455Z,1.47
2019-01-30T15:49:08.893Z,1.00
2019-01-30T15:51:42.335Z,1.00
2019-01-30T15:54:18.702Z,1.23
2019-01-30T15:56:50.962Z,1.43
2019-01-30T15:59:24.403Z,1.23
2019-01-30T16:01:57.819Z,1.30
2019-01-30T16:04:31.266Z,1.40
2019-01-30T16:07:04.690Z,1.13
2019-01-30T16:09:38.147Z,2.20
2019-01-30T16:12:11.572Z,1.53
2019-01-30T16:14:44.995Z,1.53
2019-01-30T16:17:18.411Z,1.47
2019-01-30T16:19:51.892Z,1.70
2019-01-30T16:22:25.298Z,1.63
2019-01-30T16:25:08.728Z,1.80
2019-01-30T16:27:33.888Z,1.90
2019-01-30T16:30:19.012Z,1.87
2019-01-30T16:32:52.535Z,1.80
2019-01-30T16:35:31.839Z,2.20
2019-01-30T16:38:06.304Z,1.50
2019-01-30T16:40:39.805Z,1.80
2019-01-30T16:43:13.359Z,1.60
2019-01-30T16:45:46.848Z,1.97
2019-01-30T16:48:20.321Z,1.80
2019-01-30T16:50:53.811Z,1.80
2019-01-30T16:53:27.230Z,2.43
2019-01-30T16:56:00.671Z,1.80
2019-01-30T16:58:34.097Z,1.63
2019-01-30T17:01:07.633Z,1.87
2019-01-30T17:03:41.112Z,2.00
2019-01-30T17:06:14.557Z,1.90
2019-01-30T17:08:47.987Z,2.70
2019-01-30T17:11:21.519Z,3.10
2019-01-30T17:13:54.938Z,2.90
2019-01-30T17:16:28.397Z,2.60
2019-01-30T17:19:01.852Z,2.27
2019-01-30T17:21:35.294Z,2.17
2019-01-30T17:24:08.737Z,2.60
2019-01-30T17:26:42.233Z,2.70
2019-01-30T17:29:15.710Z,2.20
2019-01-30T17:31:49.145Z,2.43
2019-01-30T17:34:22.598Z,2.40
2019-01-30T17:36:56.028Z,3.30
2019-01-30T17:39:29.502Z,3.10
2019-01-30T17:42:02.966Z,3.90
2019-01-30T17:44:36.951Z,3.67
2019-01-30T17:47:10.535Z,4.20
2019-01-30T17:49:44.219Z,3.73
2019-01-30T17:52:17.665Z,3.67
2019-01-30T17:54:51.085Z,3.37
2019-01-30T17:57:24.561Z,3.67
2019-01-30T17:59:58.001Z,4.47
2019-01-30T18:02:31.588Z,4.60
2019-01-30T18:05:06.567Z,4.73
2019-01-30T18:07:40.161Z,4.47
2019-01-30T18:10:17.778Z,4.13
2019-01-30T18:12:50.215Z,4.60
2019-01-30T18:15:23.946Z,3.70
2019-01-30T18:17:57.458Z,4.60
2019-01-30T18:20:30.967Z,3.87
2019-01-30T18:23:04.527Z,4.03
2019-01-30T18:25:37.988Z,3.60
2019-01-30T18:28:11.552Z,3.47
2019-01-30T18:30:45.026Z,4.23
2019-01-30T18:33:18.555Z,3.93
2019-01-30T18:35:52.035Z,3.27
2019-01-30T18:38:25.449Z,3.33
2019-01-30T18:40:58.969Z,3.07
2019-01-30T18:43:32.391Z,2.33
2019-01-30T18:46:06.954Z,2.47
2019-01-30T18:48:40.405Z,2.53
2019-01-30T18:51:14.026Z,2.10
2019-01-30T18:53:47.496Z,2.37
2019-01-30T18:56:21.111Z,2.23
2019-01-30T18:58:54.524Z,2.10
2019-01-30T19:01:30.360Z,1.77
2019-01-30T19:04:03.776Z,2.20
2019-01-30T19:06:37.335Z,1.67
2019-01-30T19:09:10.829Z,1.80
2019-01-30T19:11:44.378Z,2.00
2019-01-30T19:14:18.722Z,2.50
2019-01-30T19:16:52.220Z,1.83
2019-01-30T19:19:25.643Z,1.70
2019-01-30T19:21:59.258Z,1.70
2019-01-30T19:24:32.700Z,1.40
2019-01-30T19:27:06.423Z,1.17
2019-01-30T19:29:39.853Z,1.90
2019-01-30T19:32:13.464Z,1.70
2019-01-30T19:34:46.967Z,1.60
2019-01-30T19:37:20.474Z,1.33
2019-01-30T19:39:53.893Z,1.63
2019-01-30T19:42:27.449Z,1.43
2019-01-30T19:45:00.940Z,1.50
2019-01-30T19:47:34.431Z,1.80
2019-01-30T19:50:14.033Z,1.60
2019-01-30T19:52:47.714Z,1.80
2019-01-30T19:55:21.211Z,1.60
2019-01-30T19:57:56.525Z,1.43
2019-01-30T20:00:38.474Z,1.50
2019-01-30T20:03:14.835Z,1.70
2019-01-30T20:05:48.415Z,1.30
2019-01-30T20:08:21.964Z,1.93
2019-01-30T20:10:55.388Z,1.80
2019-01-30T20:13:28.864Z,1.80
2019-01-30T20:16:02.489Z,1.73
2019-01-30T20:18:36.104Z,1.50
2019-01-30T20:21:09.634Z,2.67
2019-01-30T20:23:43.142Z,2.10
2019-01-30T20:26:16.731Z,1.77
2019-01-30T20:28:50.317Z,2.10
2019-01-30T20:31:23.809Z,1.70
2019-01-30T20:33:57.328Z,1.70
2019-01-30T20:36:30.899Z,1.93
2019-01-30T20:39:07.556Z,2.40
2019-01-30T20:41:41.036Z,1.70
2019-01-30T20:44:14.480Z,1.70
2019-01-30T20:46:47.920Z,1.70
2019-01-30T20:49:21.389Z,1.50
2019-01-30T20:51:54.898Z,1.40
2019-01-30T20:54:28.347Z,1.80
2019-01-30T20:57:01.759Z,1.70
2019-01-30T20:59:35.221Z,1.97
2019-01-30T21:02:08.660Z,1.70
2019-01-30T21:04:42.185Z,1.63
2019-01-30T21:07:15.682Z,1.83
2019-01-30T21:09:49.171Z,1.80
2019-01-30T21:12:22.662Z,1.70
2019-01-30T21:14:56.107Z,1.90
2019-01-30T21:17:29.558Z,1.90
2019-01-30T21:20:03.208Z,2.60
2019-01-30T21:22:36.804Z,2.17
2019-01-30T21:25:20.777Z,2.80
2019-01-30T21:27:54.362Z,2.80
2019-01-30T21:30:30.617Z,2.97
2019-01-30T21:33:04.407Z,4.40
2019-01-30T21:35:37.858Z,3.97
2019-01-30T21:38:11.459Z,3.37
2019-01-30T21:40:44.925Z,4.20
2019-01-30T21:43:18.515Z,4.00
2019-01-30T21:45:51.924Z,4.23
2019-01-30T21:48:25.382Z,4.67
2019-01-30T21:50:58.857Z,4.77
2019-01-30T21:53:32.301Z,5.80
2019-01-30T21:56:05.978Z,4.23
2019-01-30T21:58:39.447Z,3.40
2019-01-30T22:01:12.865Z,3.30
2019-01-30T22:03:46.323Z,3.20
2019-01-30T22:06:19.820Z,3.10
2019-01-30T22:08:53.336Z,3.10
2019-01-30T22:11:26.753Z,3.00
2019-01-30T22:14:00.181Z,3.23
2019-01-30T22:16:33.599Z,3.00
2019-01-30T22:19:07.055Z,3.07
2019-01-30T22:21:41.771Z,3.20
2019-01-30T22:24:15.185Z,3.10
2019-01-30T22:26:48.643Z,3.37
2019-01-30T22:29:22.091Z,3.10
2019-01-30T22:31:55.507Z,3.33
2019-01-30T22:34:28.945Z,3.43
2019-01-30T22:37:02.364Z,3.10
2019-01-30T22:39:35.826Z,3.20
2019-01-30T22:42:09.247Z,3.37
2019-01-30T22:44:42.704Z,3.70
2019-01-30T22:47:16.111Z,3.90
2019-01-30T22:49:49.566Z,4.20
2019-01-30T22:52:23.008Z,3.83
2019-01-30T22:54:56.420Z,3.70
2019-01-30T22:57:29.830Z,3.57
2019-01-30T23:00:05.205Z,4.07
2019-01-30T23:02:40.679Z,3.93
2019-01-30T23:05:35.339Z,3.97
2019-01-30T23:08:10.189Z,3.27
2019-01-30T23:10:58.250Z,3.60
2019-01-30T23:13:40.549Z,3.53
2019-01-30T23:16:32.074Z,3.27
2019-01-30T23:19:14.534Z,4.23
2019-01-30T23:22:02.845Z,3.93
2019-01-30T23:24:51.267Z,3.73
2019-01-30T23:27:30.511Z,4.27
2019-01-30T23:30:25.184Z,3.90
2019-01-30T23:33:07.672Z,3.83
2019-01-30T23:36:02.519Z,4.10
2019-01-30T23:38:51.105Z,3.70
2019-01-30T23:41:42.656Z,3.80
2019-01-30T23:44:30.872Z,4.07
2019-01-30T23:47:19.326Z,3.80
2019-01-30T23:50:01.751Z,4.40
2019-01-30T23:52:38.285Z,3.97
2019-01-30T23:55:35.758Z,4.10
2019-01-30T23:58:21.433Z,3.80
